Bischofshofen, Autriche

12:16 CEST le 02 août 2015 (GMT +0200)
Muehlach am Hochkoenig | | Change Station
CLOSE
Current Station
Stations météorologiques personnelles
Location: Mühlbach Am Hochkönig, SALZBURG
Altitude: 2785 ft
Stations météo à proximité

Alt. 2785 ft 47.38 °N, 13.13 °E | Updated 49 seconds ago

Rain
Pluie
58.5 ° F
Paraît 58.5 ° F
N
0.9
Vent Variable Vent de Est
Gusts 2.5 mph

Aujourd'hui
Haut(e) -- | Bas -- ° F
--% Risque de précip.
Hier
Haut(e) -- | Bas -- ° F
Precip. -- pouce
5:45 AM 8:40 PM
Lune gibbeuse décroissante, 94% visible
Pression 30.18 pouce
Visibilité 6.2 Miles terrestres
Nuages Peu 500 ft
Nuageux 2000 ft
Couvert 5000 ft
Point de rosée 55 ° F
Humidité 89%
Précipitations 0.96 pouce
Profondeur de la couche neigeuse Non disponible.
UV 1.0 sur 12
Pollen Non disponible.
Qualité de l'air Non disponible.
Flu Activity Non disponible.
METAR LOWZ 021000Z VRB02KT 10KM RA FEW005ST BKN020ST OVC050SC 15/14 Q1022 RMK OVC

More Conditions Fewer Conditions

Pression 30.18 pouce
Visibilité 6.2 Miles terrestres
Nuages Peu 500 ft
Nuageux 2000 ft
Couvert 5000 ft
Point de rosée 55 ° F
Humidité 89%
Précipitations 0.96 pouce
Profondeur de la couche neigeuse Non disponible.
UV 1.0 sur 12
Pollen Non disponible.
Qualité de l'air Non disponible.
Flu Activity Non disponible.
METAR LOWZ 021000Z VRB02KT 10KM RA FEW005ST BKN020ST OVC050SC 15/14 Q1022 RMK OVC

More Conditions Fewer Conditions

10-Day Weather Forecast

×

Almanac

Astronomie

Aug. 02, 2015 Lever Coucher
Temps réel
Crépuscule civil
Crépuscule nautique
Crépuscule astronomique
Lune
Durée de lumière visible
Longueur du jour
Tomorrow will be .
, % of the Moon is Illuminated

Extrêmes aujourd'hui

Country Highs Country Lows

Community

WunderPhotos

Upload Photos

1,843,214 Photos téléchargées !

WunderBlogs® & News

Nearby

Qualité de l'air

  Qualité de l'air Indice de la qualité de l'air Polluant
Not available.

Épaisseur de neige

Station Depth Altitude

Activité sismique

Ville Distance Mag. Time & Date
Minimum magnitude displayed is 2.5.

Températures des eaux côtières

Lieu Température

Stations

Stations météo à proximité

Emplacement de la station Température Refroidissement éolien Point de rosée Humidité Vent Precip. Alt. Mise à jour Type